Arctic Bay — 9HTD8 — position and weather

sailwx.info

Track history (hours):
 
Tides and Currents Weather Stations Pressure Air Temp Water Temp Dewpoint Dewpoint Depression Visibility Wind Speed Wind Dir Waves Ship Positions

Arctic Bay

Last reported at 2017-May-21 05:00 UTC. Time now 2017-May-23 00:55 UTC.
Position N 29°21' W 094°43'.

Length 182 m; draft 10.5 m.

Type: Ship. MMSI: 256396000.

Date/timePositionNaut miles runAvg speedWind from/ knotsBaromVisibWave heightAir tempDewpointWater temp
2017-May-21 05:00N 29°21' W 094°43'910.4
2017-May-21 04:11N 29°26' W 094°50'411.5
2017-May-21 03:51N 29°30' W 094°52'411.2
2017-May-21 03:30N 29°33' W 094°55'510.9
2017-May-21 03:00N 29°38' W 094°58'5 9.9
2017-May-21 02:31N 29°42' W 095°01'4 7.3
2017-May-21 02:00N 29°45' W 095°04'3 5.4
2017-May-21 01:28N 29°44' W 095°07'1 0.4
2017-May-21 00:05N 29°44' W 095°08'0 0.0
2017-May-20 23:53N 29°44' W 095°08'0 0.0
2017-May-20 22:29N 29°44' W 095°08'0 0.0
2017-May-20 21:41N 29°44' W 095°08'0 0.0
2017-May-20 20:29N 29°44' W 095°08'0 0.0
2017-May-20 18:23N 29°44' W 095°08'0 0.0
2017-May-20 17:59N 29°44' W 095°08'0 0.0
2017-May-20 16:47N 29°44' W 095°08'0 0.0
2017-May-19 07:53N 29°44' W 095°08'0 0.0
2017-May-19 07:29N 29°44' W 095°08'0 0.0
2017-May-19 06:05N 29°44' W 095°08'0 0.0
2017-May-19 05:53N 29°44' W 095°08'0 0.0
2017-May-19 02:47N 29°44' W 095°08'0 0.0
2017-May-18 23:23N 29°44' W 095°08'0 0.3
2017-May-18 22:58N 29°44' W 095°08'2 4.3
2017-May-18 22:31N 29°45' W 095°06'3 6.3
2017-May-18 22:01N 29°44' W 095°02'4 8.6
2017-May-18 21:31N 29°41' W 094°59'611.8
2017-May-18 21:00N 29°35' W 094°56'612.2
2017-May-18 20:31N 29°30' W 094°52'612.8
2017-May-18 20:01N 29°25' W 094°49'  
2017-May-13 21:34N 09°31' W 079°50'112.2
2017-May-13 21:30N 09°30' W 079°51'612.1
2017-May-13 21:01N 09°26' W 079°55'510.6
2017-May-13 20:30N 09°20' W 079°55'3 7.0
2017-May-13 20:00N 09°17' W 079°55'1 1.1
2017-May-13 19:30N 09°16' W 079°55'0 0.4
2017-May-13 19:00N 09°16' W 079°55'0 0.8
2017-May-13 18:30N 09°16' W 079°55'0 0.3
2017-May-13 16:59N 09°15' W 079°55'1 2.3
2017-May-13 16:31N 09°14' W 079°55'3 5.4
2017-May-13 16:00N 09°12' W 079°54'  
Track history (hours):
 
Tides and Currents Weather Stations Pressure Air Temp Water Temp Dewpoint Dewpoint Depression Visibility Wind Speed Wind Dir Waves Ship Positions

Arctic Bay

Last reported at 2017-May-21 05:00 UTC. Time now 2017-May-23 00:55 UTC.
Position N 29°21' W 094°43'.

Length 182 m; draft 10.5 m.

Type: Ship. MMSI: 256396000.

Date/timePositionNaut miles runAvg speedWind from/ knotsBaromVisibWave heightAir tempDewpointWater temp
2017-May-21 05:00N 29°21' W 094°43'910.4
2017-May-21 04:11N 29°26' W 094°50'411.5
2017-May-21 03:51N 29°30' W 094°52'411.2
2017-May-21 03:30N 29°33' W 094°55'510.9
2017-May-21 03:00N 29°38' W 094°58'5 9.9
2017-May-21 02:31N 29°42' W 095°01'4 7.3
2017-May-21 02:00N 29°45' W 095°04'3 5.4
2017-May-21 01:28N 29°44' W 095°07'1 0.4
2017-May-21 00:05N 29°44' W 095°08'0 0.0
2017-May-20 23:53N 29°44' W 095°08'0 0.0
2017-May-20 22:29N 29°44' W 095°08'0 0.0
2017-May-20 21:41N 29°44' W 095°08'0 0.0
2017-May-20 20:29N 29°44' W 095°08'0 0.0
2017-May-20 18:23N 29°44' W 095°08'0 0.0
2017-May-20 17:59N 29°44' W 095°08'0 0.0
2017-May-20 16:47N 29°44' W 095°08'0 0.0
2017-May-19 07:53N 29°44' W 095°08'0 0.0
2017-May-19 07:29N 29°44' W 095°08'0 0.0
2017-May-19 06:05N 29°44' W 095°08'0 0.0
2017-May-19 05:53N 29°44' W 095°08'0 0.0
2017-May-19 02:47N 29°44' W 095°08'0 0.0
2017-May-18 23:23N 29°44' W 095°08'0 0.3
2017-May-18 22:58N 29°44' W 095°08'2 4.3
2017-May-18 22:31N 29°45' W 095°06'3 6.3
2017-May-18 22:01N 29°44' W 095°02'4 8.6
2017-May-18 21:31N 29°41' W 094°59'611.8
2017-May-18 21:00N 29°35' W 094°56'612.2
2017-May-18 20:31N 29°30' W 094°52'612.8
2017-May-18 20:01N 29°25' W 094°49'  
2017-May-13 21:34N 09°31' W 079°50'112.2
2017-May-13 21:30N 09°30' W 079°51'612.1
2017-May-13 21:01N 09°26' W 079°55'510.6
2017-May-13 20:30N 09°20' W 079°55'3 7.0
2017-May-13 20:00N 09°17' W 079°55'1 1.1
2017-May-13 19:30N 09°16' W 079°55'0 0.4
2017-May-13 19:00N 09°16' W 079°55'0 0.8
2017-May-13 18:30N 09°16' W 079°55'0 0.3
2017-May-13 16:59N 09°15' W 079°55'1 2.3
2017-May-13 16:31N 09°14' W 079°55'3 5.4
2017-May-13 16:00N 09°12' W 079°54'  

Dump ship's entire track history